sensor_id;sensor_type;location;lat;lon;timestamp;P1;durP1;ratioP1;P2;durP2;ratioP2
65545;SDS011;52177;55.968;37.498;2023-07-31T00:00:10;11.35;;;6.07;;
65545;SDS011;52177;55.968;37.498;2023-07-31T00:00:41;11.77;;;7.22;;
65545;SDS011;52177;55.968;37.498;2023-07-31T00:01:12;9.73;;;6.72;;
65545;SDS011;52177;55.968;37.498;2023-07-31T00:01:42;9.98;;;6.43;;
65545;SDS011;52177;55.968;37.498;2023-07-31T00:02:13;10.82;;;6.28;;
65545;SDS011;52177;55.968;37.498;2023-07-31T00:02:43;8.63;;;6.15;;
65545;SDS011;52177;55.968;37.498;2023-07-31T00:03:13;12.35;;;6.20;;
65545;SDS011;52177;55.968;37.498;2023-07-31T00:03:45;9.43;;;7.03;;
65545;SDS011;52177;55.968;37.498;2023-07-31T00:04:15;13.60;;;6.45;;
65545;SDS011;52177;55.968;37.498;2023-07-31T00:04:46;7.68;;;6.07;;
65545;SDS011;52177;55.968;37.498;2023-07-31T00:05:16;9.25;;;5.85;;
65545;SDS011;52177;55.968;37.498;2023-07-31T00:05:46;9.88;;;6.40;;
65545;SDS011;52177;55.968;37.498;2023-07-31T00:06:17;11.27;;;6.78;;
65545;SDS011;52177;55.968;37.498;2023-07-31T00:06:47;11.18;;;6.30;;
65545;SDS011;52177;55.968;37.498;2023-07-31T00:07:18;9.00;;;6.07;;
65545;SDS011;52177;55.968;37.498;2023-07-31T00:07:48;6.57;;;5.88;;
65545;SDS011;52177;55.968;37.498;2023-07-31T00:08:19;10.27;;;5.70;;
65545;SDS011;52177;55.968;37.498;2023-07-31T00:08:49;9.80;;;6.43;;
65545;SDS011;52177;55.968;37.498;2023-07-31T00:09:19;11.35;;;6.07;;
65545;SDS011;52177;55.968;37.498;2023-07-31T00:09:50;8.95;;;6.75;;
65545;SDS011;52177;55.968;37.498;2023-07-31T00:10:20;11.13;;;6.45;;
65545;SDS011;52177;55.968;37.498;2023-07-31T00:10:51;8.85;;;6.22;;
65545;SDS011;52177;55.968;37.498;2023-07-31T00:11:22;8.70;;;5.93;;
65545;SDS011;52177;55.968;37.498;2023-07-31T00:11:53;8.80;;;6.07;;
65545;SDS011;52177;55.968;37.498;2023-07-31T00:12:23;11.88;;;6.30;;
65545;SDS011;52177;55.968;37.498;2023-07-31T00:12:53;11.00;;;6.45;;
65545;SDS011;52177;55.968;37.498;2023-07-31T00:13:24;11.02;;;5.68;;
65545;SDS011;52177;55.968;37.498;2023-07-31T00:13:54;9.75;;;6.43;;
65545;SDS011;52177;55.968;37.498;2023-07-31T00:14:25;9.40;;;6.00;;
65545;SDS011;52177;55.968;37.498;2023-07-31T00:14:55;11.05;;;6.13;;
65545;SDS011;52177;55.968;37.498;2023-07-31T00:15:26;8.80;;;5.70;;
65545;SDS011;52177;55.968;37.498;2023-07-31T00:15:56;10.18;;;6.03;;
65545;SDS011;52177;55.968;37.498;2023-07-31T00:16:27;8.52;;;5.28;;
65545;SDS011;52177;55.968;37.498;2023-07-31T00:16:57;8.27;;;5.47;;
65545;SDS011;52177;55.968;37.498;2023-07-31T00:17:28;9.35;;;5.97;;
65545;SDS011;52177;55.968;37.498;2023-07-31T00:17:58;8.30;;;6.00;;
65545;SDS011;52177;55.968;37.498;2023-07-31T00:18:28;6.82;;;5.97;;
65545;SDS011;52177;55.968;37.498;2023-07-31T00:18:59;10.18;;;5.45;;
65545;SDS011;52177;55.968;37.498;2023-07-31T00:19:29;10.00;;;5.70;;
65545;SDS011;52177;55.968;37.498;2023-07-31T00:19:59;9.23;;;6.10;;
65545;SDS011;52177;55.968;37.498;2023-07-31T00:20:30;14.60;;;6.50;;
65545;SDS011;52177;55.968;37.498;2023-07-31T00:21:00;15.52;;;5.90;;
65545;SDS011;52177;55.968;37.498;2023-07-31T00:21:31;8.02;;;5.80;;
65545;SDS011;52177;55.968;37.498;2023-07-31T00:22:01;7.95;;;5.32;;
65545;SDS011;52177;55.968;37.498;2023-07-31T00:22:31;10.15;;;5.28;;
65545;SDS011;52177;55.968;37.498;2023-07-31T00:23:02;9.05;;;5.80;;
65545;SDS011;52177;55.968;37.498;2023-07-31T00:23:32;9.73;;;6.22;;
65545;SDS011;52177;55.968;37.498;2023-07-31T00:24:03;10.88;;;5.47;;
65545;SDS011;52177;55.968;37.498;2023-07-31T00:24:33;8.43;;;5.93;;
65545;SDS011;52177;55.968;37.498;2023-07-31T00:25:04;8.35;;;5.45;;
65545;SDS011;52177;55.968;37.498;2023-07-31T00:25:36;9.73;;;5.40;;
65545;SDS011;52177;55.968;37.498;2023-07-31T00:26:06;7.93;;;5.53;;
65545;SDS011;52177;55.968;37.498;2023-07-31T00:26:36;7.10;;;5.55;;
65545;SDS011;52177;55.968;37.498;2023-07-31T00:27:07;8.02;;;4.82;;
65545;SDS011;52177;55.968;37.498;2023-07-31T00:27:37;13.02;;;6.32;;
65545;SDS011;52177;55.968;37.498;2023-07-31T00:28:08;7.38;;;5.05;;
65545;SDS011;52177;55.968;37.498;2023-07-31T00:28:38;7.78;;;5.45;;
65545;SDS011;52177;55.968;37.498;2023-07-31T00:29:09;8.65;;;5.18;;
65545;SDS011;52177;55.968;37.498;2023-07-31T00:29:39;9.73;;;5.75;;
65545;SDS011;52177;55.968;37.498;2023-07-31T00:30:10;9.32;;;5.47;;
65545;SDS011;52177;55.968;37.498;2023-07-31T00:30:41;11.80;;;5.53;;
65545;SDS011;52177;55.968;37.498;2023-07-31T00:31:11;6.70;;;5.43;;
65545;SDS011;52177;55.968;37.498;2023-07-31T00:31:41;12.73;;;6.00;;
65545;SDS011;52177;55.968;37.498;2023-07-31T00:32:12;7.68;;;5.22;;
65545;SDS011;52177;55.968;37.498;2023-07-31T00:32:42;9.50;;;5.18;;
65545;SDS011;52177;55.968;37.498;2023-07-31T00:33:13;10.18;;;5.43;;
65545;SDS011;52177;55.968;37.498;2023-07-31T00:33:43;12.30;;;5.20;;
65545;SDS011;52177;55.968;37.498;2023-07-31T00:34:13;8.00;;;5.40;;
65545;SDS011;52177;55.968;37.498;2023-07-31T00:34:44;13.05;;;5.10;;
65545;SDS011;52177;55.968;37.498;2023-07-31T00:35:14;6.03;;;5.32;;
65545;SDS011;52177;55.968;37.498;2023-07-31T00:35:45;10.88;;;5.50;;
65545;SDS011;52177;55.968;37.498;2023-07-31T00:36:15;10.23;;;5.20;;
65545;SDS011;52177;55.968;37.498;2023-07-31T00:36:46;9.55;;;5.40;;
65545;SDS011;52177;55.968;37.498;2023-07-31T00:37:16;7.97;;;4.82;;
65545;SDS011;52177;55.968;37.498;2023-07-31T00:37:46;10.30;;;5.18;;
65545;SDS011;52177;55.968;37.498;2023-07-31T00:38:17;6.95;;;5.05;;
65545;SDS011;52177;55.968;37.498;2023-07-31T00:38:47;10.30;;;5.07;;
65545;SDS011;52177;55.968;37.498;2023-07-31T00:39:18;6.90;;;4.90;;
65545;SDS011;52177;55.968;37.498;2023-07-31T00:39:48;8.20;;;5.10;;
65545;SDS011;52177;55.968;37.498;2023-07-31T00:40:19;5.75;;;5.05;;
65545;SDS011;52177;55.968;37.498;2023-07-31T00:40:49;13.77;;;5.80;;
65545;SDS011;52177;55.968;37.498;2023-07-31T00:41:19;9.30;;;5.20;;
65545;SDS011;52177;55.968;37.498;2023-07-31T00:41:50;9.10;;;5.30;;
65545;SDS011;52177;55.968;37.498;2023-07-31T00:42:20;10.00;;;5.00;;
65545;SDS011;52177;55.968;37.498;2023-07-31T00:42:51;9.75;;;5.43;;
65545;SDS011;52177;55.968;37.498;2023-07-31T00:43:21;7.55;;;4.75;;
65545;SDS011;52177;55.968;37.498;2023-07-31T00:43:52;7.55;;;4.95;;
65545;SDS011;52177;55.968;37.498;2023-07-31T00:44:22;9.07;;;4.88;;
65545;SDS011;52177;55.968;37.498;2023-07-31T00:44:52;6.28;;;4.38;;
65545;SDS011;52177;55.968;37.498;2023-07-31T00:45:23;8.27;;;4.38;;
65545;SDS011;52177;55.968;37.498;2023-07-31T00:45:53;8.38;;;5.40;;
65545;SDS011;52177;55.968;37.498;2023-07-31T00:46:24;6.60;;;4.65;;
65545;SDS011;52177;55.968;37.498;2023-07-31T00:46:54;8.70;;;5.15;;
65545;SDS011;52177;55.968;37.498;2023-07-31T00:47:26;9.40;;;5.05;;
65545;SDS011;52177;55.968;37.498;2023-07-31T00:47:56;8.57;;;4.75;;
65545;SDS011;52177;55.968;37.498;2023-07-31T00:48:27;11.73;;;5.07;;
65545;SDS011;52177;55.968;37.498;2023-07-31T00:48:58;8.50;;;5.00;;
65545;SDS011;52177;55.968;37.498;2023-07-31T00:49:29;9.15;;;4.65;;
65545;SDS011;52177;55.968;37.498;2023-07-31T00:49:59;10.82;;;5.05;;
65545;SDS011;52177;55.968;37.498;2023-07-31T00:50:30;8.73;;;4.97;;
65545;SDS011;52177;55.968;37.498;2023-07-31T00:51:00;7.75;;;4.80;;
65545;SDS011;52177;55.968;37.498;2023-07-31T00:51:31;10.25;;;4.50;;
65545;SDS011;52177;55.968;37.498;2023-07-31T00:52:01;11.55;;;4.43;;
65545;SDS011;52177;55.968;37.498;2023-07-31T00:52:32;8.18;;;4.68;;
65545;SDS011;52177;55.968;37.498;2023-07-31T00:53:03;7.07;;;4.85;;
65545;SDS011;52177;55.968;37.498;2023-07-31T00:53:33;5.90;;;4.47;;
65545;SDS011;52177;55.968;37.498;2023-07-31T00:54:04;11.73;;;5.43;;
65545;SDS011;52177;55.968;37.498;2023-07-31T00:54:36;9.23;;;5.00;;
65545;SDS011;52177;55.968;37.498;2023-07-31T00:55:07;6.40;;;4.68;;
65545;SDS011;52177;55.968;37.498;2023-07-31T00:55:38;8.07;;;4.85;;
65545;SDS011;52177;55.968;37.498;2023-07-31T00:56:09;7.57;;;4.53;;
65545;SDS011;52177;55.968;37.498;2023-07-31T00:56:41;9.80;;;4.70;;
65545;SDS011;52177;55.968;37.498;2023-07-31T00:57:14;7.05;;;5.05;;
65545;SDS011;52177;55.968;37.498;2023-07-31T00:57:45;8.98;;;5.00;;
65545;SDS011;52177;55.968;37.498;2023-07-31T00:58:15;7.18;;;4.85;;
65545;SDS011;52177;55.968;37.498;2023-07-31T00:58:46;9.10;;;5.07;;
65545;SDS011;52177;55.968;37.498;2023-07-31T00:59:16;7.75;;;4.82;;
65545;SDS011;52177;55.968;37.498;2023-07-31T00:59:48;7.55;;;4.82;;
65545;SDS011;52177;55.968;37.498;2023-07-31T01:00:19;6.35;;;4.53;;
65545;SDS011;52177;55.968;37.498;2023-07-31T01:00:49;9.35;;;4.80;;
65545;SDS011;52177;55.968;37.498;2023-07-31T01:01:20;9.38;;;5.05;;
65545;SDS011;52177;55.968;37.498;2023-07-31T01:01:51;8.38;;;4.57;;
65545;SDS011;52177;55.968;37.498;2023-07-31T01:02:22;8.10;;;5.15;;
65545;SDS011;52177;55.968;37.498;2023-07-31T01:02:53;5.28;;;4.78;;
65545;SDS011;52177;55.968;37.498;2023-07-31T01:03:23;7.50;;;4.93;;
65545;SDS011;52177;55.968;37.498;2023-07-31T01:03:54;7.32;;;5.63;;
65545;SDS011;52177;55.968;37.498;2023-07-31T01:04:25;8.80;;;5.30;;
65545;SDS011;52177;55.968;37.498;2023-07-31T01:04:56;8.45;;;4.93;;
65545;SDS011;52177;55.968;37.498;2023-07-31T01:05:39;9.13;;;5.35;;
65545;SDS011;52177;55.968;37.498;2023-07-31T01:06:21;7.25;;;4.70;;
65545;SDS011;52177;55.968;37.498;2023-07-31T01:07:36;6.35;;;4.82;;
65545;SDS011;52177;55.968;37.498;2023-07-31T01:09:35;11.13;;;5.75;;
65545;SDS011;52177;55.968;37.498;2023-07-31T01:10:26;8.50;;;5.13;;
65545;SDS011;52177;55.968;37.498;2023-07-31T01:11:15;6.35;;;5.30;;
65545;SDS011;52177;55.968;37.498;2023-07-31T01:11:52;7.50;;;4.95;;
65545;SDS011;52177;55.968;37.498;2023-07-31T01:12:26;7.07;;;4.38;;
65545;SDS011;52177;55.968;37.498;2023-07-31T01:12:58;8.73;;;4.60;;
65545;SDS011;52177;55.968;37.498;2023-07-31T01:13:29;9.32;;;5.40;;
65545;SDS011;52177;55.968;37.498;2023-07-31T01:13:59;7.20;;;4.80;;
65545;SDS011;52177;55.968;37.498;2023-07-31T01:14:30;6.38;;;4.70;;
65545;SDS011;52177;55.968;37.498;2023-07-31T01:15:31;10.15;;;5.43;;
65545;SDS011;52177;55.968;37.498;2023-07-31T01:16:01;8.65;;;5.07;;
65545;SDS011;52177;55.968;37.498;2023-07-31T01:16:34;9.88;;;4.95;;
65545;SDS011;52177;55.968;37.498;2023-07-31T01:17:08;8.68;;;4.65;;
65545;SDS011;52177;55.968;37.498;2023-07-31T01:17:38;5.75;;;4.75;;
65545;SDS011;52177;55.968;37.498;2023-07-31T01:18:09;6.80;;;4.50;;
65545;SDS011;52177;55.968;37.498;2023-07-31T01:18:40;7.20;;;5.05;;
65545;SDS011;52177;55.968;37.498;2023-07-31T01:19:10;5.15;;;4.63;;
65545;SDS011;52177;55.968;37.498;2023-07-31T01:19:44;8.13;;;4.70;;
65545;SDS011;52177;55.968;37.498;2023-07-31T01:20:21;11.00;;;4.78;;
65545;SDS011;52177;55.968;37.498;2023-07-31T01:22:15;9.48;;;4.55;;
65545;SDS011;52177;55.968;37.498;2023-07-31T01:23:51;8.23;;;5.28;;
65545;SDS011;52177;55.968;37.498;2023-07-31T01:26:26;5.80;;;4.70;;
65545;SDS011;52177;55.968;37.498;2023-07-31T01:27:08;9.68;;;4.53;;
65545;SDS011;52177;55.968;37.498;2023-07-31T01:27:44;5.97;;;4.10;;
65545;SDS011;52177;55.968;37.498;2023-07-31T01:28:25;9.20;;;4.55;;
65545;SDS011;52177;55.968;37.498;2023-07-31T01:29:13;4.78;;;3.53;;
65545;SDS011;52177;55.968;37.498;2023-07-31T01:30:16;6.30;;;4.45;;
65545;SDS011;52177;55.968;37.498;2023-07-31T01:30:54;7.45;;;4.68;;
65545;SDS011;52177;55.968;37.498;2023-07-31T01:31:28;5.65;;;4.28;;
65545;SDS011;52177;55.968;37.498;2023-07-31T01:32:01;7.65;;;4.50;;
65545;SDS011;52177;55.968;37.498;2023-07-31T01:32:33;7.05;;;4.60;;
65545;SDS011;52177;55.968;37.498;2023-07-31T01:33:04;8.30;;;5.07;;
65545;SDS011;52177;55.968;37.498;2023-07-31T01:33:37;9.70;;;4.75;;
65545;SDS011;52177;55.968;37.498;2023-07-31T01:34:09;9.63;;;4.75;;
65545;SDS011;52177;55.968;37.498;2023-07-31T01:34:40;8.63;;;4.78;;
65545;SDS011;52177;55.968;37.498;2023-07-31T01:35:11;8.40;;;5.40;;
65545;SDS011;52177;55.968;37.498;2023-07-31T01:35:43;6.95;;;4.38;;
65545;SDS011;52177;55.968;37.498;2023-07-31T01:36:15;7.03;;;4.55;;
65545;SDS011;52177;55.968;37.498;2023-07-31T01:36:46;9.85;;;5.07;;
65545;SDS011;52177;55.968;37.498;2023-07-31T01:37:16;7.47;;;4.50;;
65545;SDS011;52177;55.968;37.498;2023-07-31T01:37:47;11.13;;;5.07;;
65545;SDS011;52177;55.968;37.498;2023-07-31T01:38:20;8.98;;;5.30;;
65545;SDS011;52177;55.968;37.498;2023-07-31T01:38:51;6.47;;;4.40;;
65545;SDS011;52177;55.968;37.498;2023-07-31T01:39:21;6.72;;;4.30;;
65545;SDS011;52177;55.968;37.498;2023-07-31T01:39:52;7.25;;;4.30;;
65545;SDS011;52177;55.968;37.498;2023-07-31T01:40:22;11.38;;;4.90;;
65545;SDS011;52177;55.968;37.498;2023-07-31T01:40:53;10.07;;;4.68;;
65545;SDS011;52177;55.968;37.498;2023-07-31T01:41:23;7.45;;;4.82;;
65545;SDS011;52177;55.968;37.498;2023-07-31T01:41:54;9.43;;;4.40;;
65545;SDS011;52177;55.968;37.498;2023-07-31T01:42:24;6.28;;;5.10;;
65545;SDS011;52177;55.968;37.498;2023-07-31T01:42:54;11.93;;;4.60;;
65545;SDS011;52177;55.968;37.498;2023-07-31T01:43:25;6.93;;;4.70;;
65545;SDS011;52177;55.968;37.498;2023-07-31T01:43:55;9.48;;;4.72;;
65545;SDS011;52177;55.968;37.498;2023-07-31T01:44:26;4.82;;;4.32;;
65545;SDS011;52177;55.968;37.498;2023-07-31T01:44:56;8.50;;;4.50;;
65545;SDS011;52177;55.968;37.498;2023-07-31T01:45:27;7.90;;;4.70;;
65545;SDS011;52177;55.968;37.498;2023-07-31T01:45:57;12.75;;;4.53;;
65545;SDS011;52177;55.968;37.498;2023-07-31T01:46:27;8.98;;;5.05;;
65545;SDS011;52177;55.968;37.498;2023-07-31T01:46:58;5.80;;;4.70;;
65545;SDS011;52177;55.968;37.498;2023-07-31T01:47:30;9.05;;;4.25;;
65545;SDS011;52177;55.968;37.498;2023-07-31T01:48:00;10.98;;;4.72;;
65545;SDS011;52177;55.968;37.498;2023-07-31T01:48:30;5.82;;;4.55;;
65545;SDS011;52177;55.968;37.498;2023-07-31T01:49:05;7.78;;;4.65;;
65545;SDS011;52177;55.968;37.498;2023-07-31T01:49:36;5.55;;;4.82;;
65545;SDS011;52177;55.968;37.498;2023-07-31T01:50:06;7.38;;;4.97;;
65545;SDS011;52177;55.968;37.498;2023-07-31T01:50:37;6.68;;;4.90;;
65545;SDS011;52177;55.968;37.498;2023-07-31T01:51:07;12.90;;;5.25;;
65545;SDS011;52177;55.968;37.498;2023-07-31T01:51:38;7.38;;;5.03;;
65545;SDS011;52177;55.968;37.498;2023-07-31T01:52:08;10.98;;;5.03;;
65545;SDS011;52177;55.968;37.498;2023-07-31T01:52:39;5.18;;;4.55;;
65545;SDS011;52177;55.968;37.498;2023-07-31T01:53:09;9.35;;;4.82;;
65545;SDS011;52177;55.968;37.498;2023-07-31T01:53:39;8.65;;;5.25;;
65545;SDS011;52177;55.968;37.498;2023-07-31T01:54:10;6.68;;;5.15;;
65545;SDS011;52177;55.968;37.498;2023-07-31T01:54:41;8.73;;;5.38;;
65545;SDS011;52177;55.968;37.498;2023-07-31T01:55:11;7.55;;;5.25;;
65545;SDS011;52177;55.968;37.498;2023-07-31T01:55:42;7.78;;;5.28;;
65545;SDS011;52177;55.968;37.498;2023-07-31T01:56:12;6.07;;;5.20;;
65545;SDS011;52177;55.968;37.498;2023-07-31T01:56:42;8.38;;;4.82;;
65545;SDS011;52177;55.968;37.498;2023-07-31T01:57:13;9.40;;;4.93;;
65545;SDS011;52177;55.968;37.498;2023-07-31T01:57:43;9.98;;;5.05;;
65545;SDS011;52177;55.968;37.498;2023-07-31T01:58:14;8.63;;;4.85;;
65545;SDS011;52177;55.968;37.498;2023-07-31T01:58:44;9.02;;;5.22;;
65545;SDS011;52177;55.968;37.498;2023-07-31T01:59:14;11.40;;;5.13;;
65545;SDS011;52177;55.968;37.498;2023-07-31T01:59:45;6.20;;;5.10;;
65545;SDS011;52177;55.968;37.498;2023-07-31T02:00:15;8.63;;;5.45;;
65545;SDS011;52177;55.968;37.498;2023-07-31T02:00:46;7.28;;;5.00;;
65545;SDS011;52177;55.968;37.498;2023-07-31T02:01:16;7.65;;;5.03;;
65545;SDS011;52177;55.968;37.498;2023-07-31T02:01:46;11.05;;;5.57;;
65545;SDS011;52177;55.968;37.498;2023-07-31T02:02:17;6.63;;;4.57;;
65545;SDS011;52177;55.968;37.498;2023-07-31T02:02:47;7.85;;;5.35;;
65545;SDS011;52177;55.968;37.498;2023-07-31T02:03:18;11.20;;;4.97;;
65545;SDS011;52177;55.968;37.498;2023-07-31T02:03:48;5.97;;;4.90;;
65545;SDS011;52177;55.968;37.498;2023-07-31T02:04:18;10.82;;;5.30;;
65545;SDS011;52177;55.968;37.498;2023-07-31T02:04:49;7.85;;;5.15;;
65545;SDS011;52177;55.968;37.498;2023-07-31T02:05:19;11.10;;;5.32;;
65545;SDS011;52177;55.968;37.498;2023-07-31T02:05:50;7.40;;;4.82;;
65545;SDS011;52177;55.968;37.498;2023-07-31T02:06:20;6.45;;;5.18;;
65545;SDS011;52177;55.968;37.498;2023-07-31T02:06:52;7.05;;;5.50;;
65545;SDS011;52177;55.968;37.498;2023-07-31T02:07:23;7.38;;;5.05;;
65545;SDS011;52177;55.968;37.498;2023-07-31T02:07:53;7.22;;;5.50;;
65545;SDS011;52177;55.968;37.498;2023-07-31T02:08:23;9.98;;;5.57;;
65545;SDS011;52177;55.968;37.498;2023-07-31T02:08:54;6.85;;;5.35;;
65545;SDS011;52177;55.968;37.498;2023-07-31T02:09:24;15.20;;;6.57;;
65545;SDS011;52177;55.968;37.498;2023-07-31T02:09:55;6.70;;;5.25;;
65545;SDS011;52177;55.968;37.498;2023-07-31T02:10:25;8.90;;;5.47;;
65545;SDS011;52177;55.968;37.498;2023-07-31T02:10:55;8.27;;;5.57;;
65545;SDS011;52177;55.968;37.498;2023-07-31T02:11:26;6.88;;;5.10;;
65545;SDS011;52177;55.968;37.498;2023-07-31T02:11:56;7.43;;;5.22;;
65545;SDS011;52177;55.968;37.498;2023-07-31T02:12:27;6.97;;;4.63;;
65545;SDS011;52177;55.968;37.498;2023-07-31T02:13:00;9.13;;;5.55;;
65545;SDS011;52177;55.968;37.498;2023-07-31T02:13:30;9.18;;;5.88;;
65545;SDS011;52177;55.968;37.498;2023-07-31T02:14:01;7.57;;;4.88;;
65545;SDS011;52177;55.968;37.498;2023-07-31T02:14:31;7.80;;;5.22;;
65545;SDS011;52177;55.968;37.498;2023-07-31T02:15:01;7.70;;;5.60;;
65545;SDS011;52177;55.968;37.498;2023-07-31T02:15:32;7.40;;;5.20;;
65545;SDS011;52177;55.968;37.498;2023-07-31T02:16:03;5.47;;;4.93;;
65545;SDS011;52177;55.968;37.498;2023-07-31T02:16:33;10.57;;;4.90;;
65545;SDS011;52177;55.968;37.498;2023-07-31T02:17:04;8.73;;;5.22;;
65545;SDS011;52177;55.968;37.498;2023-07-31T02:17:34;11.75;;;5.70;;
65545;SDS011;52177;55.968;37.498;2023-07-31T02:18:05;9.57;;;5.13;;
65545;SDS011;52177;55.968;37.498;2023-07-31T02:18:35;7.20;;;5.18;;
65545;SDS011;52177;55.968;37.498;2023-07-31T02:19:06;7.18;;;4.97;;
65545;SDS011;52177;55.968;37.498;2023-07-31T02:19:37;11.38;;;4.85;;
65545;SDS011;52177;55.968;37.498;2023-07-31T02:20:07;7.70;;;4.90;;
65545;SDS011;52177;55.968;37.498;2023-07-31T02:20:38;9.00;;;5.05;;
65545;SDS011;52177;55.968;37.498;2023-07-31T02:21:08;5.40;;;4.90;;
65545;SDS011;52177;55.968;37.498;2023-07-31T02:21:39;7.90;;;5.15;;
65545;SDS011;52177;55.968;37.498;2023-07-31T02:22:09;5.75;;;5.15;;
65545;SDS011;52177;55.968;37.498;2023-07-31T02:22:40;7.13;;;5.05;;
65545;SDS011;52177;55.968;37.498;2023-07-31T02:23:11;7.18;;;5.40;;
65545;SDS011;52177;55.968;37.498;2023-07-31T02:23:41;7.93;;;5.28;;
65545;SDS011;52177;55.968;37.498;2023-07-31T02:24:12;7.20;;;4.97;;
65545;SDS011;52177;55.968;37.498;2023-07-31T02:24:42;12.38;;;5.53;;
65545;SDS011;52177;55.968;37.498;2023-07-31T02:25:13;6.65;;;5.03;;
65545;SDS011;52177;55.968;37.498;2023-07-31T02:25:43;6.05;;;5.45;;
65545;SDS011;52177;55.968;37.498;2023-07-31T02:26:14;6.85;;;5.47;;
65545;SDS011;52177;55.968;37.498;2023-07-31T02:26:44;6.88;;;5.20;;
65545;SDS011;52177;55.968;37.498;2023-07-31T02:27:15;8.85;;;5.47;;
65545;SDS011;52177;55.968;37.498;2023-07-31T02:27:45;8.57;;;5.57;;
65545;SDS011;52177;55.968;37.498;2023-07-31T02:28:16;6.20;;;5.32;;
65545;SDS011;52177;55.968;37.498;2023-07-31T02:28:46;4.95;;;4.45;;
65545;SDS011;52177;55.968;37.498;2023-07-31T02:29:16;7.72;;;5.43;;
65545;SDS011;52177;55.968;37.498;2023-07-31T02:29:47;6.38;;;5.50;;
65545;SDS011;52177;55.968;37.498;2023-07-31T02:30:17;7.88;;;5.07;;
65545;SDS011;52177;55.968;37.498;2023-07-31T02:30:47;7.25;;;5.55;;
65545;SDS011;52177;55.968;37.498;2023-07-31T02:31:20;7.97;;;5.50;;
65545;SDS011;52177;55.968;37.498;2023-07-31T02:31:50;7.10;;;5.57;;
65545;SDS011;52177;55.968;37.498;2023-07-31T02:32:21;6.95;;;5.28;;
65545;SDS011;52177;55.968;37.498;2023-07-31T02:32:51;8.68;;;5.97;;
65545;SDS011;52177;55.968;37.498;2023-07-31T02:33:22;8.05;;;5.45;;
65545;SDS011;52177;55.968;37.498;2023-07-31T02:33:52;6.40;;;5.78;;
65545;SDS011;52177;55.968;37.498;2023-07-31T02:34:23;8.25;;;5.38;;
65545;SDS011;52177;55.968;37.498;2023-07-31T02:34:53;8.63;;;6.50;;
65545;SDS011;52177;55.968;37.498;2023-07-31T02:35:23;6.65;;;5.88;;
65545;SDS011;52177;55.968;37.498;2023-07-31T02:35:54;13.48;;;6.32;;
65545;SDS011;52177;55.968;37.498;2023-07-31T02:36:25;11.27;;;6.93;;
65545;SDS011;52177;55.968;37.498;2023-07-31T02:36:55;9.30;;;5.72;;
65545;SDS011;52177;55.968;37.498;2023-07-31T02:37:25;8.35;;;5.47;;
65545;SDS011;52177;55.968;37.498;2023-07-31T02:37:56;8.30;;;6.60;;
65545;SDS011;52177;55.968;37.498;2023-07-31T02:38:26;8.85;;;6.20;;
65545;SDS011;52177;55.968;37.498;2023-07-31T02:38:57;11.00;;;6.55;;
65545;SDS011;52177;55.968;37.498;2023-07-31T02:39:27;7.30;;;5.90;;
65545;SDS011;52177;55.968;37.498;2023-07-31T02:39:58;11.80;;;6.43;;
65545;SDS011;52177;55.968;37.498;2023-07-31T02:40:28;7.75;;;6.28;;
65545;SDS011;52177;55.968;37.498;2023-07-31T02:40:59;10.80;;;6.10;;
65545;SDS011;52177;55.968;37.498;2023-07-31T02:41:29;8.13;;;6.28;;
65545;SDS011;52177;55.968;37.498;2023-07-31T02:42:00;7.97;;;6.15;;
65545;SDS011;52177;55.968;37.498;2023-07-31T02:42:30;8.63;;;7.22;;
65545;SDS011;52177;55.968;37.498;2023-07-31T02:43:01;7.50;;;6.53;;
65545;SDS011;52177;55.968;37.498;2023-07-31T02:43:31;11.23;;;7.30;;
65545;SDS011;52177;55.968;37.498;2023-07-31T02:44:02;8.52;;;6.45;;
65545;SDS011;52177;55.968;37.498;2023-07-31T02:44:32;7.38;;;6.40;;
65545;SDS011;52177;55.968;37.498;2023-07-31T02:45:03;8.38;;;6.32;;
65545;SDS011;52177;55.968;37.498;2023-07-31T02:45:34;9.30;;;6.70;;
65545;SDS011;52177;55.968;37.498;2023-07-31T02:46:04;9.27;;;7.10;;
65545;SDS011;52177;55.968;37.498;2023-07-31T02:46:35;7.63;;;6.70;;
65545;SDS011;52177;55.968;37.498;2023-07-31T02:47:05;6.70;;;6.00;;
65545;SDS011;52177;55.968;37.498;2023-07-31T02:47:36;8.30;;;6.15;;
65545;SDS011;52177;55.968;37.498;2023-07-31T02:48:06;7.95;;;6.45;;
65545;SDS011;52177;55.968;37.498;2023-07-31T02:48:36;10.27;;;6.85;;
65545;SDS011;52177;55.968;37.498;2023-07-31T02:49:07;8.93;;;6.53;;
65545;SDS011;52177;55.968;37.498;2023-07-31T02:49:37;7.78;;;6.30;;
65545;SDS011;52177;55.968;37.498;2023-07-31T02:50:08;8.50;;;6.65;;
65545;SDS011;52177;55.968;37.498;2023-07-31T02:50:38;8.15;;;6.75;;
65545;SDS011;52177;55.968;37.498;2023-07-31T02:51:09;7.30;;;6.40;;
65545;SDS011;52177;55.968;37.498;2023-07-31T02:51:39;9.73;;;6.53;;
65545;SDS011;52177;55.968;37.498;2023-07-31T02:52:10;9.68;;;6.32;;
65545;SDS011;52177;55.968;37.498;2023-07-31T02:52:40;10.93;;;7.65;;
65545;SDS011;52177;55.968;37.498;2023-07-31T02:53:10;9.77;;;6.93;;
65545;SDS011;52177;55.968;37.498;2023-07-31T02:53:41;9.20;;;6.60;;
65545;SDS011;52177;55.968;37.498;2023-07-31T02:54:11;7.97;;;6.60;;
65545;SDS011;52177;55.968;37.498;2023-07-31T02:54:41;8.77;;;6.57;;
65545;SDS011;52177;55.968;37.498;2023-07-31T02:55:12;8.50;;;6.47;;
65545;SDS011;52177;55.968;37.498;2023-07-31T02:55:42;8.55;;;7.05;;
65545;SDS011;52177;55.968;37.498;2023-07-31T02:56:13;9.75;;;6.78;;
65545;SDS011;52177;55.968;37.498;2023-07-31T02:56:43;8.65;;;6.43;;
65545;SDS011;52177;55.968;37.498;2023-07-31T02:57:14;7.30;;;6.25;;
65545;SDS011;52177;55.968;37.498;2023-07-31T02:57:46;7.40;;;6.30;;
65545;SDS011;52177;55.968;37.498;2023-07-31T02:58:17;10.15;;;6.90;;
65545;SDS011;52177;55.968;37.498;2023-07-31T02:58:47;8.93;;;6.35;;
65545;SDS011;52177;55.968;37.498;2023-07-31T02:59:18;9.25;;;7.20;;
65545;SDS011;52177;55.968;37.498;2023-07-31T02:59:48;9.45;;;6.97;;
65545;SDS011;52177;55.968;37.498;2023-07-31T03:00:19;8.43;;;6.22;;
65545;SDS011;52177;55.968;37.498;2023-07-31T03:00:49;9.80;;;6.95;;
65545;SDS011;52177;55.968;37.498;2023-07-31T03:01:20;10.00;;;7.28;;
65545;SDS011;52177;55.968;37.498;2023-07-31T03:01:50;7.53;;;6.78;;
65545;SDS011;52177;55.968;37.498;2023-07-31T03:02:20;7.93;;;6.43;;
65545;SDS011;52177;55.968;37.498;2023-07-31T03:02:51;7.65;;;6.85;;
65545;SDS011;52177;55.968;37.498;2023-07-31T03:03:21;8.82;;;6.93;;
65545;SDS011;52177;55.968;37.498;2023-07-31T03:03:52;8.93;;;6.63;;
65545;SDS011;52177;55.968;37.498;2023-07-31T03:04:22;7.50;;;6.68;;
65545;SDS011;52177;55.968;37.498;2023-07-31T03:04:53;9.52;;;7.32;;
65545;SDS011;52177;55.968;37.498;2023-07-31T03:05:23;9.63;;;6.93;;
65545;SDS011;52177;55.968;37.498;2023-07-31T03:05:53;8.32;;;6.90;;
65545;SDS011;52177;55.968;37.498;2023-07-31T03:06:24;10.68;;;7.65;;
65545;SDS011;52177;55.968;37.498;2023-07-31T03:06:56;12.75;;;7.70;;
65545;SDS011;52177;55.968;37.498;2023-07-31T03:07:26;10.05;;;7.50;;
65545;SDS011;52177;55.968;37.498;2023-07-31T03:07:57;8.70;;;7.13;;
65545;SDS011;52177;55.968;37.498;2023-07-31T03:08:27;10.68;;;7.30;;
65545;SDS011;52177;55.968;37.498;2023-07-31T03:08:58;7.88;;;6.93;;
65545;SDS011;52177;55.968;37.498;2023-07-31T03:09:28;8.13;;;7.10;;
65545;SDS011;52177;55.968;37.498;2023-07-31T03:09:58;9.23;;;7.40;;
65545;SDS011;52177;55.968;37.498;2023-07-31T03:10:29;10.80;;;7.20;;
65545;SDS011;52177;55.968;37.498;2023-07-31T03:10:59;7.65;;;6.78;;